Time,TemperatureF,DewpointF,PressureIn,WindDirection,WindDirectionDegrees,WindSpeedMPH,WindSpeedGustMPH,Humidity,HourlyPrecipIn,Conditions,Clouds,dailyrainin,SoftwareType,DateUTC
2013-05-26 00:01:00,76.1,75.5,30.60,North,360,0.0,0.0,98,0.00,RA,,0.00,WeatherDisplay:10.37,2013-05-26 04:01:00,
2013-05-26 00:06:00,76.1,75.5,30.60,North,360,1.1,0.0,98,0.00,RA,,0.00,WeatherDisplay:10.37,2013-05-26 04:06:00,
2013-05-26 00:11:00,76.1,75.5,30.60,North,360,0.0,0.0,98,0.00,CLR,,0.00,WeatherDisplay:10.37,2013-05-26 04:11:00,
2013-05-26 00:16:00,76.1,75.5,30.60,North,360,1.1,1.1,98,0.00,CLR,,0.00,WeatherDisplay:10.37,2013-05-26 04:16:00,
2013-05-26 00:21:00,76.1,75.5,30.60,SSE,158,0.0,0.0,98,0.00,CLR,,0.00,WeatherDisplay:10.37,2013-05-26 04:21:00,
2013-05-26 00:26:00,76.1,75.5,30.63,SSE,158,0.0,0.0,98,0.00,CLR,,0.00,WeatherDisplay:10.37,2013-05-26 04:26:00,
2013-05-26 00:31:00,75.9,75.3,30.63,SSE,158,0.0,0.0,98,0.00,CLR,,0.00,WeatherDisplay:10.37,2013-05-26 04:31:00,
2013-05-26 00:36:00,75.9,75.3,30.65,SSE,158,0.0,0.0,98,0.00,CLR,,0.00,WeatherDisplay:10.37,2013-05-26 04:36:00,
2013-05-26 00:41:00,75.9,75.3,30.65,SSE,158,0.0,0.0,98,0.00,CLR,,0.00,WeatherDisplay:10.37,2013-05-26 04:41:00,
2013-05-26 00:46:00,75.9,75.3,30.65,SSE,158,0.0,0.0,98,0.00,CLR,,0.00,WeatherDisplay:10.37,2013-05-26 04:46:00,
2013-05-26 00:51:00,75.9,75.3,30.66,SE,135,0.0,0.0,98,0.00,CLR,,0.00,WeatherDisplay:10.37,2013-05-26 04:51:00,
2013-05-26 00:56:00,75.9,75.3,30.66,SSW,202,0.0,0.0,98,0.00,CLR,,0.00,WeatherDisplay:10.37,2013-05-26 04:56:00,
2013-05-26 01:01:00,75.7,75.1,30.66,SSW,202,0.0,0.0,98,0.00,CLR,,0.00,WeatherDisplay:10.37,2013-05-26 05:01:00,
2013-05-26 01:06:00,75.9,75.3,30.66,SSE,158,0.0,0.0,98,0.00,CLR,,0.00,WeatherDisplay:10.37,2013-05-26 05:06:00,
2013-05-26 01:11:00,75.9,75.3,30.68,SSE,158,0.0,0.0,98,0.00,CLR,,0.00,WeatherDisplay:10.37,2013-05-26 05:11:00,
2013-05-26 01:16:00,75.7,75.1,30.68,SSE,158,0.0,0.0,98,0.00,CLR,,0.00,WeatherDisplay:10.37,2013-05-26 05:16:00,
2013-05-26 01:21:00,75.6,75.0,30.68,SSE,158,0.0,0.0,98,0.00,CLR,,0.00,WeatherDisplay:10.37,2013-05-26 05:21:00,
2013-05-26 01:26:00,75.6,75.0,30.71,SSE,158,0.0,0.0,98,0.00,CLR,,0.00,WeatherDisplay:10.37,2013-05-26 05:26:00,
2013-05-26 01:31:00,75.4,74.8,30.71,SSE,158,0.0,0.0,98,0.00,CLR,,0.00,WeatherDisplay:10.37,2013-05-26 05:31:00,
2013-05-26 01:36:00,75.4,74.8,30.72,SSE,158,0.0,0.0,98,0.00,CLR,,0.00,WeatherDisplay:10.37,2013-05-26 05:36:00,
2013-05-26 01:41:00,75.0,74.4,30.72,SSE,158,0.0,0.0,98,0.00,CLR,,0.00,WeatherDisplay:10.37,2013-05-26 05:41:00,
2013-05-26 01:46:00,75.0,74.4,30.72,SSE,158,0.0,0.0,98,0.00,CLR,,0.00,WeatherDisplay:10.37,2013-05-26 05:46:00,
2013-05-26 01:51:00,74.8,74.2,30.77,SSE,158,0.0,0.0,98,0.00,CLR,,0.00,WeatherDisplay:10.37,2013-05-26 05:51:00,
2013-05-26 01:56:00,74.7,74.1,30.77,SSE,158,0.0,0.0,98,0.00,CLR,,0.00,WeatherDisplay:10.37,2013-05-26 05:56:00,
2013-05-26 02:01:00,74.5,73.9,30.80,SSE,158,0.0,0.0,98,0.00,CLR,,0.00,WeatherDisplay:10.37,2013-05-26 06:01:00,
2013-05-26 02:06:00,74.5,73.9,30.80,SSE,158,0.0,0.0,98,0.00,CLR,,0.00,WeatherDisplay:10.37,2013-05-26 06:06:00,
2013-05-26 02:11:00,74.3,73.7,30.81,SSE,158,0.0,0.0,98,0.00,CLR,,0.00,WeatherDisplay:10.37,2013-05-26 06:11:00,
2013-05-26 02:16:00,74.1,73.5,30.81,SSE,158,0.0,0.0,98,0.00,CLR,,0.00,WeatherDisplay:10.37,2013-05-26 06:16:00,
2013-05-26 02:21:00,73.9,73.3,30.81,SSE,158,0.0,0.0,98,0.00,CLR,,0.00,WeatherDisplay:10.37,2013-05-26 06:21:00,
2013-05-26 02:26:00,73.6,73.0,30.78,SSE,158,0.0,0.0,98,0.00,CLR,,0.00,WeatherDisplay:10.37,2013-05-26 06:26:00,
2013-05-26 02:31:00,73.4,72.8,30.78,SSE,158,0.0,0.0,98,0.00,CLR,,0.00,WeatherDisplay:10.37,2013-05-26 06:31:00,
2013-05-26 02:36:00,73.2,72.6,30.82,SSE,158,0.0,0.0,98,0.00,CLR,,0.00,WeatherDisplay:10.37,2013-05-26 06:36:00,
2013-05-26 02:41:00,73.2,72.6,30.82,SSE,158,0.0,0.0,98,0.00,CLR,,0.00,WeatherDisplay:10.37,2013-05-26 06:41:00,
2013-05-26 02:46:00,72.9,72.3,30.82,SSE,158,0.0,0.0,98,0.00,CLR,,0.00,WeatherDisplay:10.37,2013-05-26 06:46:00,
2013-05-26 02:51:00,72.7,72.1,30.85,SSE,158,0.0,0.0,98,0.00,CLR,,0.00,WeatherDisplay:10.37,2013-05-26 06:51:00,
2013-05-26 02:56:00,72.5,71.9,30.85,SSE,158,0.0,0.0,98,0.00,CLR,,0.00,WeatherDisplay:10.37,2013-05-26 06:56:00,
2013-05-26 03:01:00,72.1,71.5,30.82,SSE,158,0.0,0.0,98,0.00,CLR,,0.00,WeatherDisplay:10.37,2013-05-26 07:01:00,
2013-05-26 03:06:00,72.0,71.4,30.82,SSE,158,0.0,0.0,98,0.00,CLR,,0.00,WeatherDisplay:10.37,2013-05-26 07:06:00,
2013-05-26 03:11:00,71.8,71.2,30.85,SSE,158,0.0,0.0,98,0.00,CLR,,0.00,WeatherDisplay:10.37,2013-05-26 07:11:00,
2013-05-26 03:16:00,71.8,71.2,30.85,SSE,158,0.0,0.0,98,0.00,CLR,,0.00,WeatherDisplay:10.37,2013-05-26 07:16:00,
2013-05-26 03:21:00,71.6,71.0,30.85,SSE,158,0.0,0.0,98,0.00,CLR,,0.00,WeatherDisplay:10.37,2013-05-26 07:21:00,
2013-05-26 03:26:00,71.6,71.0,30.88,SSE,158,0.0,0.0,98,0.00,CLR,,0.00,WeatherDisplay:10.37,2013-05-26 07:26:00,
2013-05-26 03:31:00,71.4,70.8,30.88,SSE,158,0.0,0.0,98,0.00,CLR,,0.00,WeatherDisplay:10.37,2013-05-26 07:31:00,
2013-05-26 03:36:00,71.4,70.8,30.87,SSE,158,0.0,0.0,98,0.00,CLR,,0.00,WeatherDisplay:10.37,2013-05-26 07:36:00,
2013-05-26 03:41:00,71.4,70.8,30.87,SSE,158,0.0,0.0,98,0.00,CLR,,0.00,WeatherDisplay:10.37,2013-05-26 07:41:00,
2013-05-26 03:46:00,71.4,70.8,30.87,SSE,158,0.0,0.0,98,0.00,CLR,,0.00,WeatherDisplay:10.37,2013-05-26 07:46:00,
2013-05-26 03:51:00,71.4,70.8,30.89,SSE,158,0.0,0.0,98,0.00,CLR,,0.00,WeatherDisplay:10.37,2013-05-26 07:51:00,
2013-05-26 03:56:00,71.2,70.6,30.89,SSE,158,0.0,0.0,98,0.00,CLR,,0.00,WeatherDisplay:10.37,2013-05-26 07:56:00,
2013-05-26 04:01:00,71.2,70.6,30.93,SSE,158,0.0,0.0,98,0.00,CLR,,0.00,WeatherDisplay:10.37,2013-05-26 08:01:00,
2013-05-26 04:06:00,71.2,70.6,30.93,SSE,158,0.0,0.0,98,0.00,CLR,,0.00,WeatherDisplay:10.37,2013-05-26 08:06:00,
2013-05-26 04:11:00,70.9,70.3,30.93,SSE,158,0.0,0.0,98,0.00,CLR,,0.00,WeatherDisplay:10.37,2013-05-26 08:11:00,
2013-05-26 04:16:00,70.9,70.3,30.93,SSE,158,0.0,0.0,98,0.00,CLR,,0.00,WeatherDisplay:10.37,2013-05-26 08:16:00,
2013-05-26 04:21:00,70.7,70.1,30.93,SSE,158,0.0,0.0,98,0.00,CLR,,0.00,WeatherDisplay:10.37,2013-05-26 08:21:00,
2013-05-26 04:26:00,70.7,70.1,30.92,SSE,158,0.0,0.0,98,0.00,CLR,,0.00,WeatherDisplay:10.37,2013-05-26 08:26:00,
2013-05-26 04:31:00,70.5,69.9,30.92,SSE,158,0.0,0.0,98,0.00,CLR,,0.00,WeatherDisplay:10.37,2013-05-26 08:31:00,
2013-05-26 04:36:00,70.5,69.9,30.96,SSE,158,0.0,0.0,98,0.00,CLR,,0.00,WeatherDisplay:10.37,2013-05-26 08:36:00,
2013-05-26 04:41:00,70.3,69.7,30.96,SSE,158,0.0,0.0,98,0.00,CLR,,0.00,WeatherDisplay:10.37,2013-05-26 08:41:00,
2013-05-26 04:46:00,70.3,69.7,30.96,SSE,158,0.0,0.0,98,0.00,CLR,,0.00,WeatherDisplay:10.37,2013-05-26 08:46:00,
2013-05-26 04:51:00,70.3,69.7,30.98,SSE,158,0.0,0.0,98,0.00,CLR,,0.00,WeatherDisplay:10.37,2013-05-26 08:51:00,
2013-05-26 04:56:00,70.2,69.6,30.98,SSE,158,0.0,0.0,98,0.00,CLR,,0.00,WeatherDisplay:10.37,2013-05-26 08:56:00,
2013-05-26 05:01:00,70.2,69.6,30.89,SSE,158,0.0,0.0,98,0.00,CLR,,0.00,WeatherDisplay:10.37,2013-05-26 09:01:00,
2013-05-26 05:06:00,70.0,69.4,30.89,SSE,158,0.0,0.0,98,0.00,CLR,,0.00,WeatherDisplay:10.37,2013-05-26 09:06:00,
2013-05-26 05:11:00,70.0,69.4,30.64,SSE,158,0.0,0.0,98,0.00,CLR,,0.00,WeatherDisplay:10.37,2013-05-26 09:11:00,
2013-05-26 05:16:00,70.0,69.4,30.64,SSE,158,0.0,0.0,98,0.00,CLR,,0.00,WeatherDisplay:10.37,2013-05-26 09:16:00,
2013-05-26 05:21:00,70.0,69.4,30.64,SSE,158,0.0,0.0,98,0.00,CLR,,0.00,WeatherDisplay:10.37,2013-05-26 09:21:00,
2013-05-26 05:26:00,70.0,69.4,30.49,SSE,158,0.0,0.0,98,0.00,CLR,,0.00,WeatherDisplay:10.37,2013-05-26 09:26:00,
2013-05-26 05:31:00,70.0,69.4,30.49,SSE,158,0.0,0.0,98,0.00,CLR,,0.00,WeatherDisplay:10.37,2013-05-26 09:31:00,
2013-05-26 05:36:00,70.0,69.4,30.42,SSE,158,0.0,0.0,98,0.00,CLR,,0.00,WeatherDisplay:10.37,2013-05-26 09:36:00,
2013-05-26 05:41:00,70.0,69.4,30.42,SSE,158,0.0,0.0,98,0.00,CLR,,0.00,WeatherDisplay:10.37,2013-05-26 09:41:00,
2013-05-26 05:46:00,70.0,69.4,30.42,SSE,158,0.0,0.0,98,0.00,CLR,,0.00,WeatherDisplay:10.37,2013-05-26 09:46:00,
2013-05-26 05:51:00,70.0,69.4,30.34,SSE,158,0.0,0.0,98,0.00,CLR,,0.00,WeatherDisplay:10.37,2013-05-26 09:51:00,
2013-05-26 05:56:00,70.2,69.6,30.34,SSE,158,0.0,0.0,98,0.00,CLR,,0.00,WeatherDisplay:10.37,2013-05-26 09:56:00,
2013-05-26 06:01:00,70.2,69.6,30.30,SSE,158,0.0,0.0,98,0.00,CLR,,0.00,WeatherDisplay:10.37,2013-05-26 10:01:00,
2013-05-26 06:06:00,70.2,69.6,30.30,SSE,158,0.0,0.0,98,0.00,CLR,,0.00,WeatherDisplay:10.37,2013-05-26 10:06:00,
2013-05-26 06:11:00,70.7,70.1,30.26,SSE,158,0.0,0.0,98,0.00,CLR,,0.00,WeatherDisplay:10.37,2013-05-26 10:11:00,
2013-05-26 06:16:00,71.4,70.8,30.26,SSE,158,0.0,0.0,98,0.00,CLR,,0.00,WeatherDisplay:10.37,2013-05-26 10:16:00,
2013-05-26 06:21:00,71.4,70.8,30.26,SSE,158,0.0,0.0,98,0.00,CLR,,0.00,WeatherDisplay:10.37,2013-05-26 10:21:00,
2013-05-26 06:26:00,72.3,71.7,30.22,SSE,158,0.0,0.0,98,0.00,CLR,,0.00,WeatherDisplay:10.37,2013-05-26 10:26:00,
2013-05-26 06:31:00,72.3,71.7,30.22,SSE,158,0.0,0.0,98,0.00,CLR,,0.00,WeatherDisplay:10.37,2013-05-26 10:31:00,
2013-05-26 06:36:00,72.9,72.3,30.23,SSE,158,0.0,0.0,98,0.00,CLR,,0.00,WeatherDisplay:10.37,2013-05-26 10:36:00,
2013-05-26 06:41:00,73.0,72.4,30.23,NNW,338,0.0,0.0,98,0.00,CLR,,0.00,WeatherDisplay:10.37,2013-05-26 10:41:00,
2013-05-26 06:46:00,73.2,72.6,30.23,NNW,338,0.0,0.0,98,0.00,CLR,,0.00,WeatherDisplay:10.37,2013-05-26 10:46:00,
2013-05-26 06:51:00,73.9,73.3,30.52,NNW,338,1.1,0.0,98,0.00,CLR,,0.00,WeatherDisplay:10.37,2013-05-26 10:51:00,
2013-05-26 06:56:00,74.1,73.5,30.52,NNW,338,0.0,0.0,98,0.00,CLR,,0.00,WeatherDisplay:10.37,2013-05-26 10:56:00,
2013-05-26 07:01:00,74.1,73.5,30.66,NNW,338,0.0,0.0,98,0.00,CLR,,0.00,WeatherDisplay:10.37,2013-05-26 11:01:00,
2013-05-26 07:06:00,74.1,73.5,30.66,NNW,338,0.0,0.0,98,0.00,CLR,,0.00,WeatherDisplay:10.37,2013-05-26 11:06:00,
2013-05-26 07:11:00,74.1,73.5,30.73,NNW,338,0.0,0.0,98,0.00,CLR,,0.00,WeatherDisplay:10.37,2013-05-26 11:11:00,
2013-05-26 07:16:00,74.7,74.1,30.73,NNW,338,0.0,0.0,98,0.00,CLR,,0.00,WeatherDisplay:10.37,2013-05-26 11:16:00,
2013-05-26 07:21:00,75.0,74.4,30.73,NNW,338,0.0,0.0,98,0.00,CLR,,0.00,WeatherDisplay:10.37,2013-05-26 11:21:00,
2013-05-26 07:26:00,75.4,74.8,30.77,NNW,338,1.1,0.0,98,0.00,CLR,,0.00,WeatherDisplay:10.37,2013-05-26 11:26:00,
2013-05-26 07:31:00,75.7,75.1,30.77,NNW,338,0.0,0.0,98,0.00,CLR,,0.00,WeatherDisplay:10.37,2013-05-26 11:31:00,
2013-05-26 07:36:00,75.9,75.3,30.75,NNW,338,1.7,1.7,98,0.00,CLR,,0.00,WeatherDisplay:10.37,2013-05-26 11:36:00,
2013-05-26 07:41:00,76.3,75.7,30.75,NNW,338,0.0,0.0,98,0.00,CLR,,0.00,WeatherDisplay:10.37,2013-05-26 11:41:00,
2013-05-26 07:46:00,77.0,76.4,30.75,NNW,338,0.0,0.0,98,0.00,CLR,,0.00,WeatherDisplay:10.37,2013-05-26 11:46:00,
2013-05-26 07:51:00,77.7,77.1,30.73,NNW,338,0.0,0.0,98,0.00,CLR,,0.00,WeatherDisplay:10.37,2013-05-26 11:51:00,
2013-05-26 07:56:00,78.1,77.5,30.73,ESE,112,0.0,0.0,98,0.00,CLR,,0.00,WeatherDisplay:10.37,2013-05-26 11:56:00,
2013-05-26 08:01:00,78.4,77.8,30.78,SE,135,1.1,1.1,98,0.00,CLR,,0.00,WeatherDisplay:10.37,2013-05-26 12:01:00,
2013-05-26 08:06:00,78.8,78.2,30.78,East,90,0.0,0.0,98,0.00,CLR,,0.00,WeatherDisplay:10.37,2013-05-26 12:06:00,
2013-05-26 08:11:00,79.0,78.4,30.77,ESE,112,0.0,0.0,98,0.00,CLR,,0.00,WeatherDisplay:10.37,2013-05-26 12:11:00,
2013-05-26 08:16:00,79.2,78.6,30.77,ESE,112,0.0,0.0,98,0.00,CLR,,0.00,WeatherDisplay:10.37,2013-05-26 12:16:00,
2013-05-26 08:21:00,79.2,78.6,30.77,ESE,112,0.0,0.0,98,0.00,CLR,,0.00,WeatherDisplay:10.37,2013-05-26 12:21:00,
2013-05-26 08:26:00,79.7,79.1,30.77,SSE,158,0.0,0.0,98,0.00,CLR,,0.00,WeatherDisplay:10.37,2013-05-26 12:26:00,
2013-05-26 08:31:00,80.2,79.6,30.77,ESE,112,1.1,0.0,98,0.00,CLR,,0.00,WeatherDisplay:10.37,2013-05-26 12:31:00,
2013-05-26 08:36:00,80.4,79.8,30.76,NW,315,0.0,0.8,98,0.00,CLR,,0.00,WeatherDisplay:10.37,2013-05-26 12:36:00,
2013-05-26 08:41:00,80.4,79.8,30.76,West,270,0.0,0.0,98,0.00,CLR,,0.00,WeatherDisplay:10.37,2013-05-26 12:41:00,
2013-05-26 08:46:00,80.6,80.0,30.75,ESE,112,0.0,0.0,98,0.00,CLR,,0.00,WeatherDisplay:10.37,2013-05-26 12:46:00,
2013-05-26 08:51:00,80.8,80.2,30.75,ESE,112,0.0,0.0,98,0.00,CLR,,0.00,WeatherDisplay:10.37,2013-05-26 12:51:00,
2013-05-26 08:56:00,81.3,80.7,30.75,ESE,112,3.5,3.5,98,0.00,CLR,,0.00,WeatherDisplay:10.37,2013-05-26 12:56:00,
2013-05-26 09:01:00,81.7,81.1,30.70,ESE,112,0.0,0.0,98,0.00,CLR,,0.00,WeatherDisplay:10.37,2013-05-26 13:01:00,
2013-05-26 09:06:00,82.9,82.3,30.70,SE,135,0.0,0.0,98,0.00,CLR,,0.00,WeatherDisplay:10.37,2013-05-26 13:06:00,
2013-05-26 09:11:00,84.0,83.4,30.67,ESE,112,3.5,0.0,98,0.00,CLR,,0.00,WeatherDisplay:10.37,2013-05-26 13:11:00,
2013-05-26 09:16:00,85.1,84.5,30.67,SE,135,0.0,0.0,98,0.00,CLR,,0.00,WeatherDisplay:10.37,2013-05-26 13:16:00,
2013-05-26 09:21:00,85.8,85.2,30.67,SE,135,0.0,0.0,98,0.00,CLR,,0.00,WeatherDisplay:10.37,2013-05-26 13:21:00,
2013-05-26 09:26:00,86.7,82.7,30.66,SSE,158,4.2,4.2,88,0.00,CLR,,0.00,WeatherDisplay:10.37,2013-05-26 13:26:00,
2013-05-26 09:31:00,87.1,80.6,30.66,SSE,158,0.0,0.0,81,0.00,CLR,,0.00,WeatherDisplay:10.37,2013-05-26 13:31:00,
2013-05-26 09:36:00,87.4,75.5,30.65,NW,315,2.7,2.7,68,0.00,CLR,,0.00,WeatherDisplay:10.37,2013-05-26 13:36:00,
2013-05-26 09:41:00,87.8,76.8,30.65,SE,135,0.0,0.0,70,0.00,CLR,,0.00,WeatherDisplay:10.37,2013-05-26 13:41:00,
2013-05-26 09:47:00,84.0,83.4,30.64,ESE,112,0.0,0.0,98,0.00,CLR,,0.00,WeatherDisplay:10.37,2013-05-26 13:47:00,
2013-05-26 09:52:00,83.3,82.4,30.64,ESE,112,4.6,4.6,97,0.00,CLR,,0.00,WeatherDisplay:10.37,2013-05-26 13:52:00,
2013-05-26 09:57:00,83.5,79.9,30.64,SSE,158,3.2,3.2,89,0.00,CLR,,0.00,WeatherDisplay:10.37,2013-05-26 13:57:00,
2013-05-26 10:02:00,84.0,83.4,30.67,SSE,158,0.0,0.3,98,0.00,CLR,,0.00,WeatherDisplay:10.37,2013-05-26 14:02:00,
2013-05-26 10:07:00,84.4,80.1,30.67,SE,135,0.0,0.0,87,0.00,CLR,,0.00,WeatherDisplay:10.37,2013-05-26 14:07:00,
2013-05-26 10:12:00,84.4,79.7,30.68,SE,135,0.0,0.0,86,0.00,CLR,,0.00,WeatherDisplay:10.37,2013-05-26 14:12:00,
2013-05-26 10:17:00,84.9,81.3,30.68,SSW,202,1.1,1.1,89,0.00,CLR,,0.00,WeatherDisplay:10.37,2013-05-26 14:17:00,
2013-05-26 10:22:00,85.3,82.4,30.68,SE,135,0.0,0.0,91,0.00,CLR,,0.00,WeatherDisplay:10.37,2013-05-26 14:22:00,
2013-05-26 10:27:00,85.5,82.6,30.70,ESE,112,1.7,1.7,91,0.00,CLR,,0.00,WeatherDisplay:10.37,2013-05-26 14:27:00,
2013-05-26 10:32:00,84.9,78.8,30.70,SSW,202,3.5,3.5,82,0.00,CLR,,0.00,WeatherDisplay:10.37,2013-05-26 14:32:00,
2013-05-26 10:37:00,85.1,80.1,30.70,ESE,112,0.0,0.0,85,0.00,CLR,,0.00,WeatherDisplay:10.37,2013-05-26 14:37:00,
2013-05-26 10:42:00,85.6,79.5,30.70,ESE,112,0.0,0.0,82,0.00,CLR,,0.00,WeatherDisplay:10.37,2013-05-26 14:42:00,
2013-05-26 10:47:00,84.9,79.9,30.68,East,90,1.1,1.1,85,0.00,CLR,,0.00,WeatherDisplay:10.37,2013-05-26 14:47:00,
2013-05-26 10:52:00,85.5,77.9,30.68,SSE,158,1.1,1.1,78,0.00,CLR,,0.00,WeatherDisplay:10.37,2013-05-26 14:52:00,
2013-05-26 10:57:00,85.5,82.9,30.68,SSE,158,0.0,0.0,92,0.00,CLR,,0.00,WeatherDisplay:10.37,2013-05-26 14:57:00,
2013-05-26 11:02:00,85.3,79.2,30.71,East,90,0.0,0.0,82,0.00,CLR,,0.00,WeatherDisplay:10.37,2013-05-26 15:02:00,
2013-05-26 11:07:00,86.7,83.4,30.71,SE,135,1.1,1.1,90,0.00,CLR,,0.00,WeatherDisplay:10.37,2013-05-26 15:07:00,
2013-05-26 11:12:00,86.5,79.6,30.71,NE,45,1.1,1.1,80,0.00,CLR,,0.00,WeatherDisplay:10.37,2013-05-26 15:12:00,
2013-05-26 11:17:00,85.8,79.3,30.71,SE,135,5.8,5.8,81,0.00,CLR,,0.00,WeatherDisplay:10.37,2013-05-26 15:17:00,
2013-05-26 11:22:00,86.2,80.8,30.71,NNW,338,1.1,1.1,84,0.00,CLR,,0.00,WeatherDisplay:10.37,2013-05-26 15:22:00,
2013-05-26 11:27:00,86.5,80.0,30.68,NNW,338,1.1,1.1,81,0.00,CLR,,0.00,WeatherDisplay:10.37,2013-05-26 15:27:00,
2013-05-26 11:32:00,84.6,83.7,30.68,SSE,158,0.0,0.0,97,0.00,CLR,,0.00,WeatherDisplay:10.37,2013-05-26 15:32:00,
2013-05-26 11:37:00,86.7,81.6,30.70,SE,135,0.0,0.0,85,0.00,CLR,,0.00,WeatherDisplay:10.37,2013-05-26 15:37:00,
2013-05-26 11:42:00,86.9,85.0,30.70,SE,135,0.0,0.0,94,0.00,CLR,,0.00,WeatherDisplay:10.37,2013-05-26 15:42:00,
2013-05-26 11:47:00,86.0,79.9,30.67,ESE,112,1.1,1.1,82,0.00,CLR,,0.00,WeatherDisplay:10.37,2013-05-26 15:47:00,
2013-05-26 11:52:00,86.4,80.2,30.67,SE,135,5.8,5.8,82,0.00,CLR,,0.00,WeatherDisplay:10.37,2013-05-26 15:52:00,
2013-05-26 11:57:00,86.5,81.8,30.67,ESE,112,1.1,1.1,86,0.00,CLR,,0.00,WeatherDisplay:10.37,2013-05-26 15:57:00,
2013-05-26 12:02:00,85.1,84.5,30.63,SE,135,4.7,4.7,98,0.00,CLR,,0.00,WeatherDisplay:10.37,2013-05-26 16:02:00,
2013-05-26 12:07:00,83.8,83.2,30.63,SE,135,0.0,0.0,98,0.00,CLR,,0.00,WeatherDisplay:10.37,2013-05-26 16:07:00,
2013-05-26 12:12:00,84.6,84.0,30.63,SE,135,2.3,2.3,98,0.00,CLR,,0.00,WeatherDisplay:10.37,2013-05-26 16:12:00,
2013-05-26 12:17:00,85.1,84.5,30.62,South,180,0.0,0.0,98,0.00,CLR,,0.00,WeatherDisplay:10.37,2013-05-26 16:17:00,
2013-05-26 12:22:00,84.9,84.3,30.62,South,180,3.5,3.5,98,0.00,CLR,,0.00,WeatherDisplay:10.37,2013-05-26 16:22:00,
2013-05-26 12:27:00,86.4,85.8,30.51,SE,135,0.0,0.0,98,0.00,CLR,,0.00,WeatherDisplay:10.37,2013-05-26 16:27:00,
2013-05-26 12:32:00,85.5,84.9,30.51,SSE,158,0.0,0.0,98,0.00,CLR,,0.00,WeatherDisplay:10.37,2013-05-26 16:32:00,
2013-05-26 12:37:00,83.3,82.7,30.46,NNW,338,1.7,1.7,98,0.00,CLR,,0.00,WeatherDisplay:10.37,2013-05-26 16:37:00,
2013-05-26 12:42:00,84.2,83.6,30.46,SSE,158,5.8,5.8,98,0.00,CLR,,0.00,WeatherDisplay:10.37,2013-05-26 16:42:00,
2013-05-26 12:47:00,83.8,83.2,30.46,South,180,0.0,0.0,98,0.00,CLR,,0.00,WeatherDisplay:10.37,2013-05-26 16:47:00,
2013-05-26 12:52:00,82.9,82.3,30.47,SSW,202,5.8,5.8,98,0.00,CLR,,0.00,WeatherDisplay:10.37,2013-05-26 16:52:00,
2013-05-26 12:57:00,83.5,82.9,30.47,South,180,5.8,5.8,98,0.00,CLR,,0.00,WeatherDisplay:10.37,2013-05-26 16:57:00,
2013-05-26 13:02:00,85.8,85.2,30.47,SE,135,4.7,4.7,98,0.00,CLR,,0.00,WeatherDisplay:10.37,2013-05-26 17:02:00,
2013-05-26 13:07:00,86.4,83.8,30.47,NNW,338,6.3,6.3,92,0.00,CLR,,0.00,WeatherDisplay:10.37,2013-05-26 17:07:00,
2013-05-26 13:12:00,86.2,84.6,30.48,SSW,202,0.0,0.0,95,0.00,CLR,,0.00,WeatherDisplay:10.37,2013-05-26 17:12:00,
2013-05-26 13:17:00,85.1,84.2,30.48,WSW,248,2.7,2.7,97,0.00,CLR,,0.00,WeatherDisplay:10.37,2013-05-26 17:17:00,
2013-05-26 13:22:00,85.1,84.2,30.48,SSW,202,5.3,5.3,97,0.00,CLR,,0.00,WeatherDisplay:10.37,2013-05-26 17:22:00,
2013-05-26 13:27:00,83.7,83.1,30.48,NE,45,4.6,4.6,98,0.00,CLR,,0.00,WeatherDisplay:10.37,2013-05-26 17:27:00,
2013-05-26 13:32:00,85.5,84.9,30.48,SE,135,0.0,0.0,98,0.00,CLR,,0.00,WeatherDisplay:10.37,2013-05-26 17:32:00,
2013-05-26 13:37:00,85.6,81.6,30.48,West,270,2.3,2.3,88,0.00,CLR,,0.00,WeatherDisplay:10.37,2013-05-26 17:37:00,
2013-05-26 13:42:00,84.9,83.3,30.48,SSE,158,4.6,4.6,95,0.00,CLR,,0.00,WeatherDisplay:10.37,2013-05-26 17:42:00,
2013-05-26 13:47:00,86.0,82.4,30.46,East,90,5.8,5.8,89,0.00,CLR,,0.00,WeatherDisplay:10.37,2013-05-26 17:47:00,
2013-05-26 13:52:00,86.4,83.5,30.46,ESE,112,0.0,0.0,91,0.00,CLR,,0.00,WeatherDisplay:10.37,2013-05-26 17:52:00,
2013-05-26 13:57:00,84.6,83.7,30.46,ESE,112,1.1,1.1,97,0.00,CLR,,0.00,WeatherDisplay:10.37,2013-05-26 17:57:00,
2013-05-26 14:02:00,84.7,84.1,30.38,East,90,0.0,0.0,98,0.00,CLR,,0.00,WeatherDisplay:10.37,2013-05-26 18:02:00,
2013-05-26 14:07:00,85.5,83.9,30.38,SSE,158,0.0,0.0,95,0.00,CLR,,0.00,WeatherDisplay:10.37,2013-05-26 18:07:00,
2013-05-26 14:12:00,85.3,82.0,30.29,SE,135,1.1,1.1,90,0.00,CLR,,0.00,WeatherDisplay:10.37,2013-05-26 18:12:00,
2013-05-26 14:17:00,85.8,79.3,30.29,North,360,2.3,2.3,81,0.00,CLR,,0.00,WeatherDisplay:10.37,2013-05-26 18:17:00,
2013-05-26 14:22:00,84.9,79.2,30.29,South,180,3.5,3.5,83,0.00,CLR,,0.00,WeatherDisplay:10.37,2013-05-26 18:22:00,
2013-05-26 14:27:00,85.6,81.3,30.25,SSE,158,0.0,0.0,87,0.00,CLR,,0.00,WeatherDisplay:10.37,2013-05-26 18:27:00,
2013-05-26 14:32:00,85.1,78.6,30.25,ESE,112,4.6,4.6,81,0.00,CLR,,0.00,WeatherDisplay:10.37,2013-05-26 18:32:00,
2013-05-26 14:37:00,86.4,82.1,30.21,ENE,68,1.1,1.1,87,0.00,CLR,,0.00,WeatherDisplay:10.37,2013-05-26 18:37:00,
2013-05-26 14:42:00,85.8,76.1,30.21,SSW,202,2.3,2.3,73,0.00,CLR,,0.00,WeatherDisplay:10.37,2013-05-26 18:42:00,
2013-05-26 14:47:00,86.4,79.5,30.21,South,180,0.0,0.0,80,0.00,CLR,,0.00,WeatherDisplay:10.37,2013-05-26 18:47:00,
2013-05-26 14:52:00,86.0,77.1,30.18,West,270,1.1,1.1,75,0.00,CLR,,0.00,WeatherDisplay:10.37,2013-05-26 18:52:00,
2013-05-26 14:57:00,85.3,76.5,30.18,West,270,2.3,2.3,75,0.00,CLR,,0.00,WeatherDisplay:10.37,2013-05-26 18:57:00,
2013-05-26 15:02:00,85.1,78.2,30.16,South,180,4.6,4.6,80,0.00,CLR,,0.00,WeatherDisplay:10.37,2013-05-26 19:02:00,
2013-05-26 15:07:00,85.1,78.6,30.16,South,180,6.9,6.9,81,0.00,CLR,,0.00,WeatherDisplay:10.37,2013-05-26 19:07:00,
2013-05-26 15:12:00,85.5,81.5,30.14,South,180,0.0,0.0,88,0.00,CLR,,0.00,WeatherDisplay:10.37,2013-05-26 19:12:00,
2013-05-26 15:17:00,85.5,80.1,30.14,ESE,112,5.8,5.8,84,0.00,CLR,,0.00,WeatherDisplay:10.37,2013-05-26 19:17:00,
2013-05-26 15:22:00,84.7,81.1,30.14,North,360,1.1,1.1,89,0.00,CLR,,0.00,WeatherDisplay:10.37,2013-05-26 19:22:00,
2013-05-26 15:27:00,85.6,81.6,30.12,NW,315,1.7,0.0,88,0.00,CLR,,0.00,WeatherDisplay:10.37,2013-05-26 19:27:00,
2013-05-26 15:32:00,85.5,80.5,30.12,North,360,1.1,1.1,85,0.00,CLR,,0.00,WeatherDisplay:10.37,2013-05-26 19:32:00,
2013-05-26 15:37:00,84.6,78.9,30.10,SW,225,2.3,2.3,83,0.00,CLR,,0.00,WeatherDisplay:10.37,2013-05-26 19:37:00,
2013-05-26 15:42:00,84.6,81.3,30.10,NNW,338,1.7,1.7,90,0.00,CLR,,0.00,WeatherDisplay:10.37,2013-05-26 19:42:00,
2013-05-26 15:47:00,84.0,81.8,30.10,SE,135,2.7,2.7,93,0.00,CLR,,0.00,WeatherDisplay:10.37,2013-05-26 19:47:00,
2013-05-26 15:52:00,83.8,82.5,30.10,North,360,4.6,4.6,96,0.00,CLR,,0.00,WeatherDisplay:10.37,2013-05-26 19:52:00,
2013-05-26 15:57:00,84.2,83.6,30.10,SSE,158,0.0,0.0,98,0.00,CLR,,0.00,WeatherDisplay:10.37,2013-05-26 19:57:00,
2013-05-26 16:02:00,83.8,82.2,30.10,NW,315,4.6,4.6,95,0.00,CLR,,0.00,WeatherDisplay:10.37,2013-05-26 20:02:00,
2013-05-26 16:07:00,84.0,83.4,30.10,South,180,0.0,0.0,98,0.00,CLR,,0.00,WeatherDisplay:10.37,2013-05-26 20:07:00,
2013-05-26 16:12:00,83.1,82.5,30.12,WSW,248,2.3,2.3,98,0.00,CLR,,0.00,WeatherDisplay:10.37,2013-05-26 20:12:00,
2013-05-26 16:17:00,84.6,79.9,30.12,SSE,158,2.2,2.2,86,0.00,CLR,,0.00,WeatherDisplay:10.37,2013-05-26 20:17:00,
2013-05-26 16:22:00,84.2,79.6,30.12,NNW,338,1.1,1.1,86,0.00,CLR,,0.00,WeatherDisplay:10.37,2013-05-26 20:22:00,
2013-05-26 16:27:00,83.5,81.3,30.13,NW,315,3.5,3.5,93,0.00,CLR,,0.00,WeatherDisplay:10.37,2013-05-26 20:27:00,
2013-05-26 16:32:00,83.7,83.1,30.13,SSE,158,1.1,0.0,98,0.00,CLR,,0.00,WeatherDisplay:10.37,2013-05-26 20:32:00,
2013-05-26 16:37:00,83.3,82.7,30.13,SE,135,0.0,0.0,98,0.00,CLR,,0.00,WeatherDisplay:10.37,2013-05-26 20:37:00,
2013-05-26 16:42:00,85.1,80.8,30.13,North,360,2.2,2.2,87,0.00,CLR,,0.00,WeatherDisplay:10.37,2013-05-26 20:42:00,
2013-05-26 16:47:00,84.9,77.3,30.13,NW,315,4.6,4.6,78,0.00,CLR,,0.00,WeatherDisplay:10.37,2013-05-26 20:47:00,
2013-05-26 16:52:00,85.3,78.8,30.13,SE,135,3.2,3.2,81,0.00,CLR,,0.00,WeatherDisplay:10.37,2013-05-26 20:52:00,
2013-05-26 16:57:00,84.7,79.7,30.13,SE,135,5.8,5.8,85,0.00,CLR,,0.00,WeatherDisplay:10.37,2013-05-26 20:57:00,
2013-05-26 17:02:00,84.6,79.2,30.13,SSE,158,1.1,1.1,84,0.00,CLR,,0.00,WeatherDisplay:10.37,2013-05-26 21:02:00,
2013-05-26 17:07:00,84.2,82.6,30.13,North,360,1.1,1.1,95,0.00,CLR,,0.00,WeatherDisplay:10.37,2013-05-26 21:07:00,
2013-05-26 17:12:00,84.7,83.4,30.14,South,180,0.0,0.0,96,0.00,CLR,,0.00,WeatherDisplay:10.37,2013-05-26 21:12:00,
2013-05-26 17:17:00,83.8,83.2,30.14,NNW,338,2.3,2.3,98,0.00,CLR,,0.00,WeatherDisplay:10.37,2013-05-26 21:17:00,
2013-05-26 17:22:00,83.8,82.5,30.14,NW,315,2.7,2.7,96,0.00,CLR,,0.00,WeatherDisplay:10.37,2013-05-26 21:22:00,
2013-05-26 17:27:00,83.1,81.8,30.15,South,180,3.7,3.7,96,0.00,CLR,,0.00,WeatherDisplay:10.37,2013-05-26 21:27:00,
2013-05-26 17:32:00,82.6,82.0,30.15,WNW,292,5.3,5.3,98,0.00,CLR,,0.00,WeatherDisplay:10.37,2013-05-26 21:32:00,
2013-05-26 17:37:00,82.9,82.3,30.15,South,180,3.5,3.5,98,0.00,CLR,,0.00,WeatherDisplay:10.37,2013-05-26 21:37:00,
2013-05-26 17:42:00,82.8,82.2,30.15,NW,315,4.6,4.6,98,0.00,CLR,,0.00,WeatherDisplay:10.37,2013-05-26 21:42:00,
2013-05-26 17:47:00,82.4,81.8,30.14,South,180,3.2,3.2,98,0.00,CLR,,0.00,WeatherDisplay:10.37,2013-05-26 21:47:00,
2013-05-26 17:52:00,82.8,82.2,30.14,SSE,158,1.1,1.1,98,0.00,CLR,,0.00,WeatherDisplay:10.37,2013-05-26 21:52:00,
2013-05-26 17:57:00,82.4,81.8,30.14,SSE,158,0.0,0.0,98,0.00,CLR,,0.00,WeatherDisplay:10.37,2013-05-26 21:57:00,
2013-05-26 18:02:00,82.2,81.6,30.16,SSE,158,1.7,1.7,98,0.00,CLR,,0.00,WeatherDisplay:10.37,2013-05-26 22:02:00,
2013-05-26 18:07:00,81.9,81.3,30.16,SSE,158,4.6,4.6,98,0.00,CLR,,0.00,WeatherDisplay:10.37,2013-05-26 22:07:00,
2013-05-26 18:12:00,81.9,81.3,30.17,ESE,112,5.8,5.8,98,0.00,CLR,,0.00,WeatherDisplay:10.37,2013-05-26 22:12:00,
2013-05-26 18:17:00,81.7,81.1,30.17,SE,135,0.0,0.0,98,0.00,CLR,,0.00,WeatherDisplay:10.37,2013-05-26 22:17:00,
2013-05-26 18:22:00,81.7,81.1,30.17,SSE,158,0.0,0.5,98,0.00,CLR,,0.00,WeatherDisplay:10.37,2013-05-26 22:22:00,
2013-05-26 18:27:00,81.5,80.9,30.19,South,180,1.1,0.0,98,0.00,CLR,,0.00,WeatherDisplay:10.37,2013-05-26 22:27:00,
2013-05-26 18:32:00,81.1,80.5,30.19,SSE,158,0.0,0.0,98,0.00,CLR,,0.00,WeatherDisplay:10.37,2013-05-26 22:32:00,
2013-05-26 18:37:00,80.6,80.0,30.20,East,90,1.1,1.1,98,0.00,CLR,,0.00,WeatherDisplay:10.37,2013-05-26 22:37:00,
2013-05-26 18:42:00,80.4,79.8,30.20,SSE,158,2.3,0.0,98,0.00,CLR,,0.00,WeatherDisplay:10.37,2013-05-26 22:42:00,
2013-05-26 18:47:00,80.2,79.6,30.22,ESE,112,1.1,0.0,98,0.00,CLR,,0.00,WeatherDisplay:10.37,2013-05-26 22:47:00,
2013-05-26 18:52:00,80.1,79.5,30.22,SSE,158,3.5,3.5,98,0.00,CLR,,0.00,WeatherDisplay:10.37,2013-05-26 22:52:00,
2013-05-26 18:57:00,79.9,79.3,30.22,SSE,158,1.1,1.1,98,0.00,CLR,,0.00,WeatherDisplay:10.37,2013-05-26 22:57:00,
2013-05-26 19:02:00,79.5,78.9,30.23,SSE,158,0.0,0.0,98,0.00,CLR,,0.00,WeatherDisplay:10.37,2013-05-26 23:02:00,
2013-05-26 19:07:00,79.5,78.9,30.23,SSE,158,0.0,0.0,98,0.00,CLR,,0.00,WeatherDisplay:10.37,2013-05-26 23:07:00,
2013-05-26 19:12:00,79.3,78.7,30.24,SSE,158,0.0,0.0,98,0.00,CLR,,0.00,WeatherDisplay:10.37,2013-05-26 23:12:00,
2013-05-26 19:17:00,79.3,78.7,30.24,SSE,158,0.0,0.0,98,0.00,CLR,,0.00,WeatherDisplay:10.37,2013-05-26 23:17:00,
2013-05-26 19:22:00,79.2,78.6,30.24,West,270,2.2,2.2,98,0.00,CLR,,0.00,WeatherDisplay:10.37,2013-05-26 23:22:00,
2013-05-26 19:27:00,79.0,78.4,30.25,SSW,202,0.0,0.0,98,0.00,CLR,,0.00,WeatherDisplay:10.37,2013-05-26 23:27:00,
2013-05-26 19:32:00,78.8,78.2,30.25,ESE,112,3.5,3.5,98,0.00,CLR,,0.00,WeatherDisplay:10.37,2013-05-26 23:32:00,
2013-05-26 19:37:00,78.8,78.2,30.27,South,180,0.0,0.0,98,0.00,CLR,,0.00,WeatherDisplay:10.37,2013-05-26 23:37:00,
2013-05-26 19:42:00,78.6,78.0,30.27,East,90,2.2,2.2,98,0.00,CLR,,0.00,WeatherDisplay:10.37,2013-05-26 23:42:00,
2013-05-26 19:47:00,78.4,77.8,30.29,SSE,158,0.0,0.0,98,0.00,CLR,,0.00,WeatherDisplay:10.37,2013-05-26 23:47:00,
2013-05-26 19:52:00,78.4,77.8,30.29,SSE,158,1.1,0.0,98,0.00,CLR,,0.00,WeatherDisplay:10.37,2013-05-26 23:52:00,
2013-05-26 19:57:00,78.3,77.7,30.29,ESE,112,0.0,0.0,98,0.00,CLR,,0.00,WeatherDisplay:10.37,2013-05-26 23:57:00,
2013-05-26 20:02:00,78.3,77.7,30.30,SSE,158,1.1,1.1,98,0.00,CLR,,0.00,WeatherDisplay:10.37,2013-05-27 00:02:00,
2013-05-26 20:07:00,78.1,77.5,30.30,South,180,1.1,1.1,98,0.00,CLR,,0.00,WeatherDisplay:10.37,2013-05-27 00:07:00,
2013-05-26 20:12:00,78.1,77.5,30.25,SSW,202,0.0,0.0,98,0.00,CLR,,0.00,WeatherDisplay:10.37,2013-05-27 00:12:00,
2013-05-26 20:17:00,77.9,77.3,30.25,SSE,158,0.0,0.0,98,0.00,CLR,,0.00,WeatherDisplay:10.37,2013-05-27 00:17:00,
2013-05-26 20:22:00,77.9,77.3,30.25,ESE,112,0.0,0.0,98,0.00,CLR,,0.00,WeatherDisplay:10.37,2013-05-27 00:22:00,
2013-05-26 20:27:00,77.7,77.1,30.20,SSW,202,5.8,5.8,98,0.00,CLR,,0.00,WeatherDisplay:10.37,2013-05-27 00:27:00,
2013-05-26 20:32:00,77.7,77.1,30.20,NNW,338,1.1,0.0,98,0.00,CLR,,0.00,WeatherDisplay:10.37,2013-05-27 00:32:00,
2013-05-26 20:37:00,77.7,77.1,30.19,NW,315,0.0,0.0,98,0.00,CLR,,0.00,WeatherDisplay:10.37,2013-05-27 00:37:00,
2013-05-26 20:42:00,77.7,77.1,30.19,NW,315,2.3,0.0,98,0.00,CLR,,0.00,WeatherDisplay:10.37,2013-05-27 00:42:00,
2013-05-26 20:47:00,77.5,76.9,30.18,ESE,112,0.0,0.0,98,0.00,CLR,,0.00,WeatherDisplay:10.37,2013-05-27 00:47:00,
2013-05-26 20:52:00,77.5,76.9,30.18,North,360,1.1,1.1,98,0.00,CLR,,0.00,WeatherDisplay:10.37,2013-05-27 00:52:00,
2013-05-26 20:57:00,77.5,76.9,30.18,North,360,4.7,4.7,98,0.00,CLR,,0.00,WeatherDisplay:10.37,2013-05-27 00:57:00,
2013-05-26 21:02:00,77.5,76.9,30.18,South,180,1.1,1.1,98,0.00,CLR,,0.00,WeatherDisplay:10.37,2013-05-27 01:02:00,
2013-05-26 21:07:00,77.5,76.9,30.18,SW,225,0.0,0.0,98,0.00,CLR,,0.00,WeatherDisplay:10.37,2013-05-27 01:07:00,
2013-05-26 21:12:00,77.4,76.8,30.18,South,180,0.0,0.0,98,0.00,CLR,,0.00,WeatherDisplay:10.37,2013-05-27 01:12:00,
2013-05-26 21:17:00,77.4,76.8,30.18,SSW,202,0.0,0.0,98,0.00,CLR,,0.00,WeatherDisplay:10.37,2013-05-27 01:17:00,
2013-05-26 21:22:00,77.4,76.8,30.18,SSE,158,0.0,0.0,98,0.00,CLR,,0.00,WeatherDisplay:10.37,2013-05-27 01:22:00,
2013-05-26 21:27:00,77.2,76.6,30.21,SSE,158,1.1,0.0,98,0.00,CLR,,0.00,WeatherDisplay:10.37,2013-05-27 01:27:00,
2013-05-26 21:32:00,77.2,76.6,30.21,NW,315,1.1,0.0,98,0.00,CLR,,0.00,WeatherDisplay:10.37,2013-05-27 01:32:00,
2013-05-26 21:37:00,77.2,76.6,30.25,NW,315,1.1,1.1,98,0.00,CLR,,0.00,WeatherDisplay:10.37,2013-05-27 01:37:00,
2013-05-26 21:42:00,77.0,76.4,30.25,NW,315,1.1,0.0,98,0.00,CLR,,0.00,WeatherDisplay:10.37,2013-05-27 01:42:00,
2013-05-26 21:47:00,77.2,76.6,30.25,NW,315,2.3,0.0,98,0.00,CLR,,0.00,WeatherDisplay:10.37,2013-05-27 01:47:00,
2013-05-26 21:52:00,77.0,76.4,30.30,NW,315,1.7,1.7,98,0.00,CLR,,0.00,WeatherDisplay:10.37,2013-05-27 01:52:00,
2013-05-26 21:57:00,77.0,76.4,30.30,NW,315,0.0,0.0,98,0.00,CLR,,0.00,WeatherDisplay:10.37,2013-05-27 01:57:00,
2013-05-26 22:02:00,77.0,76.4,30.38,NW,315,0.0,0.0,98,0.00,CLR,,0.00,WeatherDisplay:10.37,2013-05-27 02:02:00,
2013-05-26 22:07:00,77.2,76.6,30.38,NW,315,0.0,0.0,98,0.00,CLR,,0.00,WeatherDisplay:10.37,2013-05-27 02:07:00,
2013-05-26 22:12:00,77.2,76.6,30.44,NW,315,1.1,1.1,98,0.00,CLR,,0.00,WeatherDisplay:10.37,2013-05-27 02:12:00,
2013-05-26 22:17:00,77.2,76.6,30.44,NNW,338,0.0,0.0,98,0.00,CLR,,0.00,WeatherDisplay:10.37,2013-05-27 02:17:00,
2013-05-26 22:22:00,77.2,76.6,30.44,NNW,338,0.0,0.0,98,0.00,CLR,,0.00,WeatherDisplay:10.37,2013-05-27 02:22:00,
2013-05-26 22:27:00,77.2,76.6,30.49,NNW,338,0.0,0.0,98,0.00,CLR,,0.00,WeatherDisplay:10.37,2013-05-27 02:27:00,
2013-05-26 22:32:00,77.2,76.6,30.49,NNW,338,0.0,0.0,98,0.00,CLR,,0.00,WeatherDisplay:10.37,2013-05-27 02:32:00,
2013-05-26 22:37:00,77.2,76.6,30.50,SSE,158,0.0,0.0,98,0.00,CLR,,0.00,WeatherDisplay:10.37,2013-05-27 02:37:00,
2013-05-26 22:42:00,77.0,76.4,30.50,SE,135,1.1,1.1,98,0.00,CLR,,0.00,WeatherDisplay:10.37,2013-05-27 02:42:00,
2013-05-26 22:47:00,77.2,76.6,30.55,ESE,112,5.8,5.8,98,0.00,CLR,,0.00,WeatherDisplay:10.37,2013-05-27 02:47:00,
2013-05-26 22:52:00,77.0,76.4,30.55,SE,135,1.1,0.0,98,0.00,CLR,,0.00,WeatherDisplay:10.37,2013-05-27 02:52:00,
2013-05-26 22:57:00,77.0,76.4,30.55,ESE,112,2.2,2.2,98,0.00,CLR,,0.00,WeatherDisplay:10.37,2013-05-27 02:57:00,
2013-05-26 23:02:00,77.0,76.4,30.57,SE,135,0.0,0.0,98,0.00,CLR,,0.00,WeatherDisplay:10.37,2013-05-27 03:02:00,
2013-05-26 23:07:00,77.2,76.6,30.57,ENE,68,0.0,0.3,98,0.00,CLR,,0.00,WeatherDisplay:10.37,2013-05-27 03:07:00,
2013-05-26 23:12:00,77.2,76.6,30.56,ESE,112,0.0,0.0,98,0.00,CLR,,0.00,WeatherDisplay:10.37,2013-05-27 03:12:00,
2013-05-26 23:17:00,77.4,76.8,30.56,SSE,158,0.0,0.0,98,0.00,CLR,,0.00,WeatherDisplay:10.37,2013-05-27 03:17:00,
2013-05-26 23:22:00,77.4,76.8,30.56,NW,315,0.0,0.0,98,0.00,CLR,,0.00,WeatherDisplay:10.37,2013-05-27 03:22:00,
2013-05-26 23:27:00,77.4,76.8,30.56,NE,45,4.6,4.6,98,0.00,CLR,,0.00,WeatherDisplay:10.37,2013-05-27 03:27:00,
2013-05-26 23:32:00,77.4,76.8,30.56,SE,135,0.0,0.0,98,0.00,CLR,,0.00,WeatherDisplay:10.37,2013-05-27 03:32:00,
2013-05-26 23:37:00,77.0,76.4,30.60,SSE,158,1.1,0.0,98,0.00,CLR,,0.00,WeatherDisplay:10.37,2013-05-27 03:37:00,
2013-05-26 23:42:00,77.0,76.4,30.60,SSW,202,0.0,0.0,98,0.00,CLR,,0.00,WeatherDisplay:10.37,2013-05-27 03:42:00,
2013-05-26 23:47:00,76.6,76.0,30.61,SSE,158,0.0,0.0,98,0.00,CLR,,0.00,WeatherDisplay:10.37,2013-05-27 03:47:00,
2013-05-26 23:52:00,76.6,76.0,30.61,SE,135,0.0,0.0,98,0.00,CLR,,0.00,WeatherDisplay:10.37,2013-05-27 03:52:00,
2013-05-26 23:57:00,76.5,75.9,30.61,ESE,112,0.0,0.0,98,0.00,CLR,,0.00,WeatherDisplay:10.37,2013-05-27 03:57:00,